Time;durP1;ratioP1;P1;durP2;ratioP2;P2;SDS_P1;SDS_P2;PMS_P1;PMS_P2;Temp;Humidity;BMP_temperature;BMP_pressure;BME280_temperature;BME280_humidity;BME280_pressure;Samples;Min_cycle;Max_cycle;Signal;HPM_P1;HPM_P2
2023/10/26 00:00:58;;;;;;;112.10;20.45;;;;;;;-148.88;100.00;-17125.47;5011448;28;20392;-72
2023/10/26 00:03:23;;;;;;;55.40;16.40;;;;;;;-148.88;100.00;-17125.47;5012598;28;20061;-71
2023/10/26 00:05:48;;;;;;;27.33;13.85;;;;;;;-148.88;100.00;-17125.47;5011511;28;20112;-72
2023/10/26 00:08:14;;;;;;;48.10;17.88;;;;;;;-148.88;100.00;-17125.47;5011520;28;20026;-72
2023/10/26 00:10:40;;;;;;;25.13;16.05;;;;;;;-148.88;100.00;-17125.47;5011466;28;20397;-72
2023/10/26 00:13:06;;;;;;;25.05;16.15;;;;;;;-148.88;100.00;-17125.47;5012890;28;20364;-71
2023/10/26 00:15:31;;;;;;;21.40;15.43;;;;;;;-148.88;100.00;-17125.47;5012746;28;20076;-71
2023/10/26 00:17:57;;;;;;;30.88;15.88;;;;;;;-148.88;100.00;-17125.47;5011497;28;20532;-71
2023/10/26 00:20:22;;;;;;;22.50;15.43;;;;;;;-148.88;100.00;-17125.47;5013087;28;20017;-71
2023/10/26 00:22:48;;;;;;;26.50;16.58;;;;;;;-148.88;100.00;-17125.47;5012585;28;20025;-72
2023/10/26 00:25:13;;;;;;;22.80;16.85;;;;;;;-148.88;100.00;-17125.47;5012966;28;20104;-72
2023/10/26 00:27:40;;;;;;;33.33;17.75;;;;;;;-148.88;100.00;-17125.47;5012878;28;20500;-72
2023/10/26 00:30:09;;;;;;;26.30;16.98;;;;;;;-148.88;100.00;-17125.47;5011298;28;20037;-72
2023/10/26 00:32:34;;;;;;;24.58;17.63;;;;;;;-148.88;100.00;-17125.47;5011501;28;20397;-71
2023/10/26 00:35:00;;;;;;;24.75;17.25;;;;;;;-148.88;100.00;-17125.47;5012532;28;20072;-73
2023/10/26 00:37:25;;;;;;;31.05;19.23;;;;;;;-148.88;100.00;-17125.47;5012847;28;20033;-72
2023/10/26 00:39:50;;;;;;;26.55;17.75;;;;;;;-148.88;100.00;-17125.47;5012508;28;20445;-71
2023/10/26 00:42:16;;;;;;;26.63;18.38;;;;;;;-148.88;100.00;-17125.47;5011113;28;20084;-73
2023/10/26 00:44:46;;;;;;;26.20;17.75;;;;;;;-148.88;100.00;-17125.47;5012611;28;20032;-71
2023/10/26 00:47:11;;;;;;;33.70;18.70;;;;;;;-148.88;100.00;-17125.47;5011197;28;20022;-72
2023/10/26 00:49:40;;;;;;;40.97;20.73;;;;;;;-148.88;100.00;-17125.47;5012437;28;20024;-71
2023/10/26 00:52:06;;;;;;;31.17;19.00;;;;;;;-148.88;100.00;-17125.47;5012405;28;20032;-72
2023/10/26 00:54:34;;;;;;;33.65;20.38;;;;;;;-148.88;100.00;-17125.47;5012383;28;20022;-71
2023/10/26 00:57:01;;;;;;;35.58;20.38;;;;;;;-148.88;100.00;-17125.47;5012413;28;20449;-72
2023/10/26 00:59:27;;;;;;;37.03;21.05;;;;;;;-148.88;100.00;-17125.47;5014814;28;20037;-72
2023/10/26 01:01:55;;;;;;;38.10;20.75;;;;;;;-148.88;100.00;-17125.47;5015030;28;20025;-71
2023/10/26 01:04:20;;;;;;;43.53;21.90;;;;;;;-148.88;100.00;-17125.47;5016333;28;20176;-72
2023/10/26 01:06:46;;;;;;;38.03;20.50;;;;;;;-148.88;100.00;-17125.47;5016253;28;20045;-72
2023/10/26 01:09:11;;;;;;;31.42;19.00;;;;;;;-148.88;100.00;-17125.47;5015989;28;20538;-71
2023/10/26 01:11:39;;;;;;;34.20;19.83;;;;;;;-148.88;100.00;-17125.47;5015865;28;20026;-73
2023/10/26 01:14:05;;;;;;;33.85;19.83;;;;;;;-148.88;100.00;-17125.47;5016044;28;20022;-71
2023/10/26 01:16:31;;;;;;;26.58;17.63;;;;;;;-148.88;100.00;-17125.47;5015609;28;20100;-71
2023/10/26 01:19:01;;;;;;;36.33;20.35;;;;;;;-148.88;100.00;-17125.47;5015952;28;20506;-71
2023/10/26 01:21:31;;;;;;;32.35;19.05;;;;;;;-148.88;100.00;-17125.47;5015673;28;20022;-71
2023/10/26 01:23:57;;;;;;;32.45;19.60;;;;;;;-148.88;100.00;-17125.47;5015464;28;20025;-71
2023/10/26 01:26:23;;;;;;;33.92;19.98;;;;;;;-148.88;100.00;-17125.47;5015512;28;20032;-71
2023/10/26 01:28:49;;;;;;;35.97;19.35;;;;;;;-148.88;100.00;-17125.47;5015422;28;20104;-71
2023/10/26 01:31:18;;;;;;;32.63;19.27;;;;;;;-148.88;100.00;-17125.47;5015692;28;20017;-71
2023/10/26 01:33:44;;;;;;;34.33;20.50;;;;;;;-148.88;100.00;-17125.47;5015325;28;20030;-71
2023/10/26 01:36:10;;;;;;;27.83;18.77;;;;;;;-148.88;100.00;-17125.47;5015310;28;20481;-71
2023/10/26 01:38:36;;;;;;;30.13;18.95;;;;;;;-148.88;100.00;-17125.47;5015172;28;20041;-71
2023/10/26 01:41:01;;;;;;;31.35;19.23;;;;;;;-148.88;100.00;-17125.47;5015185;28;20164;-71
2023/10/26 01:43:26;;;;;;;31.88;19.52;;;;;;;-148.88;100.00;-17125.47;5015285;28;20030;-72
2023/10/26 01:45:52;;;;;;;33.83;19.83;;;;;;;-148.88;100.00;-17125.47;5015351;28;20070;-71
2023/10/26 01:48:18;;;;;;;31.00;18.83;;;;;;;-148.88;100.00;-17125.47;5015099;28;20421;-71
2023/10/26 01:50:43;;;;;;;33.97;20.50;;;;;;;-148.88;100.00;-17125.47;5014875;28;20061;-71
2023/10/26 01:53:08;;;;;;;30.67;19.42;;;;;;;-148.88;100.00;-17125.47;5015059;28;20025;-72
2023/10/26 01:55:34;;;;;;;36.03;20.48;;;;;;;-148.88;100.00;-17125.47;5015000;28;20080;-71
2023/10/26 01:57:59;;;;;;;29.90;19.27;;;;;;;-148.88;100.00;-17125.47;5013675;28;20017;-71
2023/10/26 02:00:25;;;;;;;31.55;18.90;;;;;;;-148.88;100.00;-17125.47;5014876;28;20041;-71
2023/10/26 02:02:50;;;;;;;32.63;19.63;;;;;;;-148.88;100.00;-17125.47;5014848;28;20112;-71
2023/10/26 02:05:16;;;;;;;30.55;18.85;;;;;;;-148.88;100.00;-17125.47;5014716;28;20107;-71
2023/10/26 02:07:42;;;;;;;29.20;19.02;;;;;;;-148.88;100.00;-17125.47;5015066;28;20033;-71
2023/10/26 02:10:12;;;;;;;32.25;19.50;;;;;;;-148.88;100.00;-17125.47;5013449;28;20026;-71
2023/10/26 02:12:37;;;;;;;37.92;21.33;;;;;;;-148.88;100.00;-17125.47;5014720;28;20018;-71
2023/10/26 02:15:03;;;;;;;37.80;21.15;;;;;;;-148.88;100.00;-17125.47;5014944;28;20022;-71
2023/10/26 02:17:28;;;;;;;38.72;21.30;;;;;;;-148.88;100.00;-17125.47;5014779;28;20108;-71
2023/10/26 02:19:54;;;;;;;41.38;21.25;;;;;;;-148.88;100.00;-17125.47;5014727;28;20030;-72
2023/10/26 02:22:19;;;;;;;37.25;20.98;;;;;;;-148.88;100.00;-17125.47;5014609;28;20025;-72
2023/10/26 02:24:44;;;;;;;41.13;21.08;;;;;;;-148.88;100.00;-17125.47;5014511;28;20061;-72
2023/10/26 02:27:11;;;;;;;37.95;20.67;;;;;;;-148.88;100.00;-17125.47;5014331;28;20034;-72
2023/10/26 02:29:36;;;;;;;41.05;21.20;;;;;;;-148.88;100.00;-17125.47;5014369;28;20081;-71
2023/10/26 02:32:02;;;;;;;37.22;20.10;;;;;;;-148.88;100.00;-17125.47;5014675;28;20362;-72
2023/10/26 02:34:27;;;;;;;44.17;21.55;;;;;;;-148.88;100.00;-17125.47;5014245;28;20070;-71
2023/10/26 02:36:53;;;;;;;44.85;22.23;;;;;;;-148.88;100.00;-17125.47;5014532;28;20076;-71
2023/10/26 02:39:18;;;;;;;39.75;21.80;;;;;;;-148.88;100.00;-17125.47;5014205;28;20129;-71
2023/10/26 02:41:43;;;;;;;40.78;20.52;;;;;;;-148.88;100.00;-17125.47;5014357;28;20026;-71
2023/10/26 02:44:09;;;;;;;39.33;21.90;;;;;;;-148.88;100.00;-17125.47;5014600;28;20026;-71
2023/10/26 02:46:34;;;;;;;40.80;21.73;;;;;;;-148.88;100.00;-17125.47;5014080;28;20396;-71
2023/10/26 02:48:59;;;;;;;40.22;21.70;;;;;;;-148.88;100.00;-17125.47;5012653;28;20150;-71
2023/10/26 02:51:25;;;;;;;41.67;23.00;;;;;;;-148.88;100.00;-17125.47;5014017;28;20072;-71
2023/10/26 02:53:50;;;;;;;35.92;20.27;;;;;;;-148.88;100.00;-17125.47;5014132;28;20029;-72
2023/10/26 02:56:15;;;;;;;37.92;21.33;;;;;;;-148.88;100.00;-17125.47;5013896;28;20022;-72
2023/10/26 02:58:41;;;;;;;35.85;21.50;;;;;;;-148.88;100.00;-17125.47;5014053;28;20027;-71
2023/10/26 03:01:06;;;;;;;35.50;20.98;;;;;;;-148.88;100.00;-17125.47;5013643;28;20460;-72
2023/10/26 03:03:32;;;;;;;32.97;18.63;;;;;;;-148.88;100.00;-17125.47;5013628;28;20022;-72
2023/10/26 03:06:00;;;;;;;38.35;21.92;;;;;;;-148.88;100.00;-17125.47;5013572;28;20579;-71
2023/10/26 03:08:26;;;;;;;32.78;20.30;;;;;;;-148.88;100.00;-17125.47;5013714;28;20079;-71
2023/10/26 03:10:51;;;;;;;33.85;20.00;;;;;;;-148.88;100.00;-17125.47;5014012;28;20528;-71
2023/10/26 03:13:17;;;;;;;29.67;19.42;;;;;;;-148.88;100.00;-17125.47;5013812;28;20026;-71
2023/10/26 03:15:42;;;;;;;35.00;20.48;;;;;;;-148.88;100.00;-17125.47;5013829;28;20080;-71
2023/10/26 03:18:07;;;;;;;31.98;20.92;;;;;;;-148.88;100.00;-17125.47;5013547;28;20108;-71
2023/10/26 03:20:33;;;;;;;34.65;21.52;;;;;;;-148.88;100.00;-17125.47;5013396;28;20062;-71
2023/10/26 03:22:59;;;;;;;32.90;20.77;;;;;;;-148.88;100.00;-17125.47;5012917;28;20026;-71
2023/10/26 03:25:24;;;;;;;34.08;21.05;;;;;;;-148.88;100.00;-17125.47;5013281;28;20480;-71
2023/10/26 03:27:50;;;;;;;31.20;19.20;;;;;;;-148.88;100.00;-17125.47;5013427;28;20026;-72
2023/10/26 03:30:17;;;;;;;30.45;20.27;;;;;;;-148.88;100.00;-17125.47;5011848;28;20049;-72
2023/10/26 03:32:43;;;;;;;29.60;19.40;;;;;;;-148.88;100.00;-17125.47;5013590;28;20022;-72
2023/10/26 03:35:08;;;;;;;29.52;19.23;;;;;;;-148.88;100.00;-17125.47;5013235;28;20437;-71
2023/10/26 03:37:36;;;;;;;29.17;18.83;;;;;;;-148.88;100.00;-17125.47;5013083;28;20022;-72
2023/10/26 03:40:02;;;;;;;25.90;18.65;;;;;;;-148.88;100.00;-17125.47;5011825;28;20151;-72
2023/10/26 03:42:28;;;;;;;27.95;18.00;;;;;;;-148.88;100.00;-17125.47;5013035;28;20022;-72
2023/10/26 03:44:53;;;;;;;24.67;17.50;;;;;;;-148.88;100.00;-17125.47;5013028;28;20448;-72
2023/10/26 03:47:18;;;;;;;24.73;16.65;;;;;;;-148.88;100.00;-17125.47;5011520;28;20017;-71
2023/10/26 03:49:45;;;;;;;26.83;17.55;;;;;;;-148.88;100.00;-17125.47;5013057;28;20021;-71
2023/10/26 03:52:11;;;;;;;23.92;15.82;;;;;;;-148.88;100.00;-17125.47;5011587;28;20107;-72
2023/10/26 03:54:37;;;;;;;27.67;17.70;;;;;;;-148.88;100.00;-17125.47;5011519;28;20030;-71
2023/10/26 03:57:03;;;;;;;25.48;15.88;;;;;;;-148.88;100.00;-17125.47;5012880;28;20022;-71
2023/10/26 03:59:28;;;;;;;28.33;16.92;;;;;;;-148.88;100.00;-17125.47;5012911;28;20029;-72
2023/10/26 04:01:54;;;;;;;23.02;15.55;;;;;;;-148.88;100.00;-17125.47;5012877;28;20381;-71
2023/10/26 04:04:19;;;;;;;26.08;15.80;;;;;;;-148.88;100.00;-17125.47;5011669;28;20022;-78
2023/10/26 04:06:45;;;;;;;20.80;14.15;;;;;;;-148.88;100.00;-17125.47;5010918;28;20346;-72
2023/10/26 04:09:10;;;;;;;18.95;13.27;;;;;;;-148.88;100.00;-17125.47;5012057;28;20072;-71
2023/10/26 04:11:36;;;;;;;21.52;14.40;;;;;;;-148.88;100.00;-17125.47;5011997;28;20122;-71
2023/10/26 04:14:01;;;;;;;21.30;13.50;;;;;;;-148.88;100.00;-17125.47;5012062;28;20054;-71
2023/10/26 04:16:26;;;;;;;19.98;13.32;;;;;;;-148.88;100.00;-17125.47;5011964;28;20080;-71
2023/10/26 04:18:52;;;;;;;19.50;12.95;;;;;;;-148.88;100.00;-17125.47;5010495;28;20026;-71
2023/10/26 04:21:17;;;;;;;20.10;13.32;;;;;;;-148.88;100.00;-17125.47;5011849;28;20037;-71
2023/10/26 04:23:42;;;;;;;19.92;13.60;;;;;;;-148.88;100.00;-17125.47;5011953;28;20465;-71
2023/10/26 04:26:12;;;;;;;22.00;12.93;;;;;;;-148.88;100.00;-17125.47;5011954;28;20038;-72
2023/10/26 04:28:38;;;;;;;17.85;12.45;;;;;;;-148.88;100.00;-17125.47;5010353;28;20030;-71
2023/10/26 04:31:04;;;;;;;18.75;12.30;;;;;;;-148.88;100.00;-17125.47;5011667;28;20037;-71
2023/10/26 04:33:30;;;;;;;18.90;12.18;;;;;;;-148.88;100.00;-17125.47;5011101;28;20029;-71
2023/10/26 04:35:59;;;;;;;18.10;11.25;;;;;;;-148.88;100.00;-17125.47;5015164;28;20377;-71
2023/10/26 04:38:24;;;;;;;14.82;9.35;;;;;;;-148.88;100.00;-17125.47;5015226;28;20029;-71
2023/10/26 04:40:50;;;;;;;13.77;8.40;;;;;;;-148.88;100.00;-17125.47;5013674;28;20026;-72
2023/10/26 04:43:15;;;;;;;14.02;8.18;;;;;;;-148.88;100.00;-17125.47;5015017;28;20033;-72
2023/10/26 04:45:40;;;;;;;16.85;8.10;;;;;;;-148.88;100.00;-17125.47;5015092;28;20485;-73
2023/10/26 04:48:06;;;;;;;32.42;11.82;;;;;;;-148.88;100.00;-17125.47;5015053;28;20495;-72
2023/10/26 04:50:31;;;;;;;18.52;9.38;;;;;;;-148.88;100.00;-17125.47;5014865;28;20038;-72
2023/10/26 04:52:57;;;;;;;11.90;8.35;;;;;;;-148.88;100.00;-17125.47;5014984;28;20396;-73
2023/10/26 04:55:23;;;;;;;12.73;8.13;;;;;;;-148.88;100.00;-17125.47;5014956;28;20026;-72
2023/10/26 04:57:48;;;;;;;7.50;2.92;;;;;;;-148.88;100.00;-17125.47;5013547;28;20025;-71
2023/10/26 05:00:14;;;;;;;6.80;3.50;;;;;;;-148.88;100.00;-17125.47;5014864;28;20100;-72
2023/10/26 05:02:41;;;;;;;10.13;7.40;;;;;;;-148.88;100.00;-17125.47;5014801;28;20018;-71
2023/10/26 05:05:07;;;;;;;9.32;6.55;;;;;;;-148.88;100.00;-17125.47;4967882;28;1364105;-71
2023/10/26 05:07:33;;;;;;;5.60;2.50;;;;;;;-148.88;100.00;-17125.47;5015931;28;20493;-72
2023/10/26 05:10:02;;;;;;;10.13;7.13;;;;;;;-148.88;100.00;-17125.47;5016093;28;20078;-73
2023/10/26 05:12:27;;;;;;;9.73;7.25;;;;;;;-148.88;100.00;-17125.47;5015835;28;20018;-73
2023/10/26 05:14:52;;;;;;;12.15;8.68;;;;;;;-148.88;100.00;-17125.47;5016197;28;20060;-72
2023/10/26 05:17:18;;;;;;;10.90;8.52;;;;;;;-148.88;100.00;-17125.47;5015852;28;20112;-73
2023/10/26 05:19:43;;;;;;;13.45;9.48;;;;;;;-148.88;100.00;-17125.47;5014392;28;20026;-72
2023/10/26 05:22:08;;;;;;;14.40;10.50;;;;;;;-148.88;100.00;-17125.47;5015702;28;20037;-73
2023/10/26 05:24:34;;;;;;;12.02;9.10;;;;;;;-148.88;100.00;-17125.47;5014350;28;20026;-73
2023/10/26 05:27:00;;;;;;;11.38;4.97;;;;;;;-148.88;100.00;-17125.47;5015619;28;20097;-73
2023/10/26 05:29:28;;;;;;;12.88;9.52;;;;;;;-148.88;100.00;-17125.47;5015686;28;20037;-72
2023/10/26 05:31:54;;;;;;;15.75;10.32;;;;;;;-148.88;100.00;-17125.47;5015616;28;20068;-72
2023/10/26 05:34:19;;;;;;;14.52;10.60;;;;;;;-148.88;100.00;-17125.47;5014185;28;20029;-73
2023/10/26 05:36:44;;;;;;;14.75;10.70;;;;;;;-148.88;100.00;-17125.47;5015593;28;20022;-73
2023/10/26 05:39:10;;;;;;;14.38;10.60;;;;;;;-148.88;100.00;-17125.47;5015315;28;20057;-72
2023/10/26 05:41:35;;;;;;;9.30;5.05;;;;;;;-148.88;100.00;-17125.47;5015224;28;20108;-73
2023/10/26 05:44:00;;;;;;;13.00;10.25;;;;;;;-148.88;100.00;-17125.47;5015109;28;20080;-73
2023/10/26 05:46:26;;;;;;;9.60;4.80;;;;;;;-148.88;100.00;-17125.47;5014042;28;20030;-73
2023/10/26 05:48:51;;;;;;;16.27;11.50;;;;;;;-148.88;100.00;-17125.47;5015221;28;20080;-72
2023/10/26 05:51:16;;;;;;;16.20;11.07;;;;;;;-148.88;100.00;-17125.47;5015277;28;20025;-72
2023/10/26 05:53:42;;;;;;;13.88;10.88;;;;;;;-148.88;100.00;-17125.47;5015392;28;20018;-72
2023/10/26 05:56:08;;;;;;;15.38;11.32;;;;;;;-148.88;100.00;-17125.47;5013873;28;20042;-73
2023/10/26 05:58:34;;;;;;;15.13;11.35;;;;;;;-148.88;100.00;-17125.47;5015099;28;20022;-72
2023/10/26 06:00:59;;;;;;;15.18;11.65;;;;;;;-148.88;100.00;-17125.47;5013669;28;20071;-73
2023/10/26 06:03:25;;;;;;;13.82;11.15;;;;;;;-148.88;100.00;-17125.47;5015158;28;20022;-73
2023/10/26 06:05:51;;;;;;;16.58;12.02;;;;;;;-148.88;100.00;-17125.47;5014904;28;20148;-72
2023/10/26 06:08:16;;;;;;;18.42;12.60;;;;;;;-148.88;100.00;-17125.47;5013603;28;20507;-73
2023/10/26 06:10:42;;;;;;;17.05;12.40;;;;;;;-148.88;100.00;-17125.47;5015042;28;20037;-72
2023/10/26 06:13:07;;;;;;;9.65;5.00;;;;;;;-148.88;100.00;-17125.47;5015200;28;20033;-72
2023/10/26 06:15:34;;;;;;;12.55;6.47;;;;;;;-148.88;100.00;-17125.47;5014751;28;20026;-72
2023/10/26 06:17:59;;;;;;;23.83;15.20;;;;;;;-148.88;100.00;-17125.47;5014730;28;20504;-73
2023/10/26 06:20:27;;;;;;;20.15;13.85;;;;;;;-148.88;100.00;-17125.47;5014666;28;20022;-73
2023/10/26 06:22:56;;;;;;;20.45;14.70;;;;;;;-148.88;100.00;-17125.47;5014580;28;20030;-72
2023/10/26 06:25:22;;;;;;;9.65;5.72;;;;;;;-148.88;100.00;-17125.47;5014589;28;20080;-72
2023/10/26 06:27:47;;;;;;;17.60;13.75;;;;;;;-148.88;100.00;-17125.47;5015051;28;20030;-73
2023/10/26 06:30:15;;;;;;;17.85;13.27;;;;;;;-148.88;100.00;-17125.47;5014449;28;20062;-73
2023/10/26 06:32:42;;;;;;;9.93;5.38;;;;;;;-148.88;100.00;-17125.47;5014517;28;20209;-73
2023/10/26 06:35:08;;;;;;;11.80;6.60;;;;;;;-148.88;100.00;-17125.47;5014367;28;20037;-73
2023/10/26 06:37:34;;;;;;;19.58;14.73;;;;;;;-148.88;100.00;-17125.47;5014299;28;20033;-74
2023/10/26 06:39:59;;;;;;;11.38;6.18;;;;;;;-148.88;100.00;-17125.47;5014598;28;20076;-72
2023/10/26 06:42:24;;;;;;;14.55;7.00;;;;;;;-148.88;100.00;-17125.47;5014273;28;20109;-73
2023/10/26 06:44:50;;;;;;;16.15;12.35;;;;;;;-148.88;100.00;-17125.47;5014470;28;20037;-73
2023/10/26 06:47:16;;;;;;;17.65;13.00;;;;;;;-148.88;100.00;-17125.47;5014125;28;20057;-73
2023/10/26 06:49:42;;;;;;;10.38;5.50;;;;;;;-148.88;100.00;-17125.47;5012748;28;20033;-72
2023/10/26 06:52:08;;;;;;;18.90;13.80;;;;;;;-148.88;100.00;-17125.47;5014021;28;20014;-73
2023/10/26 06:54:34;;;;;;;17.75;13.30;;;;;;;-148.88;100.00;-17125.47;5014164;28;20022;-73
2023/10/26 06:56:59;;;;;;;19.85;13.88;;;;;;;-148.88;100.00;-17125.47;5013318;28;20499;-72
2023/10/26 06:59:25;;;;;;;19.83;14.05;;;;;;;-148.88;100.00;-17125.47;5013928;28;20034;-72
2023/10/26 07:01:51;;;;;;;18.65;14.30;;;;;;;-148.88;100.00;-17125.47;5014110;28;20034;-74
2023/10/26 07:04:16;;;;;;;20.38;15.27;;;;;;;-148.88;100.00;-17125.47;5012530;28;20084;-73
2023/10/26 07:06:42;;;;;;;22.63;15.27;;;;;;;-148.88;100.00;-17125.47;5013755;28;20030;-73
2023/10/26 07:09:07;;;;;;;23.27;15.88;;;;;;;-148.88;100.00;-17125.47;5013701;28;20022;-73
2023/10/26 07:11:33;;;;;;;13.95;6.28;;;;;;;-148.88;100.00;-17125.47;5013667;28;20025;-73
2023/10/26 07:13:58;;;;;;;21.98;15.65;;;;;;;-148.88;100.00;-17125.47;5013710;28;20442;-72
2023/10/26 07:16:24;;;;;;;25.50;16.50;;;;;;;-148.88;100.00;-17125.47;5013947;28;20105;-74
2023/10/26 07:18:50;;;;;;;16.27;6.65;;;;;;;-148.88;100.00;-17125.47;5013562;28;20025;-73
2023/10/26 07:21:16;;;;;;;15.82;7.72;;;;;;;-148.88;100.00;-17125.47;5013560;28;20025;-73
2023/10/26 07:23:41;;;;;;;27.73;17.92;;;;;;;-148.88;100.00;-17125.47;5013389;28;20026;-73
2023/10/26 07:26:07;;;;;;;27.55;18.05;;;;;;;-148.88;100.00;-17125.47;5012173;28;20060;-73
2023/10/26 07:28:32;;;;;;;25.20;17.98;;;;;;;-148.88;100.00;-17125.47;5013500;28;20104;-73
2023/10/26 07:30:58;;;;;;;15.07;7.30;;;;;;;-148.88;100.00;-17125.47;5013572;28;20105;-72
2023/10/26 07:33:24;;;;;;;28.42;17.67;;;;;;;-148.88;100.00;-17125.47;5013301;28;20022;-73
2023/10/26 07:35:51;;;;;;;25.35;16.98;;;;;;;-148.88;100.00;-17125.47;5013304;28;20053;-73
2023/10/26 07:38:17;;;;;;;28.90;17.67;;;;;;;-148.88;100.00;-17125.47;5012042;28;20054;-73
2023/10/26 07:40:50;;;;;;;24.77;17.63;;;;;;;-148.88;100.00;-17125.47;5013127;28;20025;-73
2023/10/26 07:43:16;;;;;;;28.35;18.73;;;;;;;-148.88;100.00;-17125.47;5011685;28;20106;-73
2023/10/26 07:45:41;;;;;;;15.55;8.05;;;;;;;-148.88;100.00;-17125.47;5011782;28;20155;-73
2023/10/26 07:48:07;;;;;;;30.38;21.17;;;;;;;-148.88;100.00;-17125.47;5013160;28;20029;-73
2023/10/26 07:50:32;;;;;;;28.08;20.15;;;;;;;-148.88;100.00;-17125.47;5012964;28;20036;-73
2023/10/26 07:53:00;;;;;;;26.48;18.95;;;;;;;-148.88;100.00;-17125.47;5013269;28;20028;-73
2023/10/26 07:55:25;;;;;;;24.88;18.20;;;;;;;-148.88;100.00;-17125.47;5011636;28;20056;-73
2023/10/26 07:57:50;;;;;;;16.13;7.63;;;;;;;-148.88;100.00;-17125.47;5012994;28;20021;-73
2023/10/26 08:00:16;;;;;;;22.58;8.27;;;;;;;-148.88;100.00;-17125.47;5012849;28;20029;-73
2023/10/26 08:02:42;;;;;;;15.35;8.00;;;;;;;-148.88;100.00;-17125.47;5012681;28;20034;-73
2023/10/26 08:05:09;;;;;;;22.98;17.23;;;;;;;-148.88;100.00;-17125.47;5043356;23;20187;-86
2023/10/26 08:07:36;;;;;;;23.58;16.42;;;;;;;-148.88;100.00;-17125.47;5015589;28;20109;-86
2023/10/26 08:10:02;;;;;;;23.05;17.25;;;;;;;-148.88;100.00;-17125.47;4997989;28;20508;-85
2023/10/26 08:12:28;;;;;;;14.70;7.15;;;;;;;-148.88;100.00;-17125.47;4999986;28;20017;-86
2023/10/26 08:14:56;;;;;;;21.45;16.38;;;;;;;-148.88;100.00;-17125.47;4999758;28;20068;-87
2023/10/26 08:17:21;;;;;;;22.67;16.67;;;;;;;-148.88;100.00;-17125.47;5017489;28;20079;-85
2023/10/26 08:19:53;;;;;;;20.77;14.93;;;;;;;-148.88;100.00;-17125.47;5014957;28;20025;-86
2023/10/26 08:22:20;;;;;;;18.52;14.73;;;;;;;-148.88;100.00;-17125.47;5015345;28;20026;-87
2023/10/26 08:24:49;;;;;;;20.40;15.15;;;;;;;-148.88;100.00;-17125.47;5015435;28;20495;-84
2023/10/26 08:27:14;;;;;;;18.23;14.00;;;;;;;-148.88;100.00;-17125.47;5015963;28;20121;-88
2023/10/26 08:29:40;;;;;;;20.55;15.02;;;;;;;-148.88;100.00;-17125.47;5015469;28;20037;-84
2023/10/26 08:32:05;;;;;;;20.38;15.15;;;;;;;-148.88;100.00;-17125.47;5014496;28;20380;-86
2023/10/26 08:34:31;;;;;;;20.92;15.18;;;;;;;-148.88;100.00;-17125.47;5015011;28;20069;-87
2023/10/26 08:36:59;;;;;;;21.00;15.75;;;;;;;-148.88;100.00;-17125.47;5014241;28;20392;-89
2023/10/26 08:39:25;;;;;;;18.08;14.07;;;;;;;-148.88;100.00;-17125.47;5015808;28;20033;-88
2023/10/26 08:41:50;;;;;;;19.13;16.20;;;;;;;-148.88;100.00;-17125.47;5015645;28;20141;-86
2023/10/26 08:44:17;;;;;;;20.80;14.88;;;;;;;-148.88;100.00;-17125.47;5018347;28;20025;-88
2023/10/26 08:46:44;;;;;;;20.15;15.50;;;;;;;-148.88;100.00;-17125.47;5015582;28;20033;-86
2023/10/26 08:49:11;;;;;;;21.02;14.63;;;;;;;-148.88;100.00;-17125.47;5014933;28;20034;-86
2023/10/26 08:51:37;;;;;;;20.88;15.77;;;;;;;-148.88;100.00;-17125.47;5012856;28;20026;-88
2023/10/26 08:54:02;;;;;;;20.15;15.77;;;;;;;-148.88;100.00;-17125.47;5014391;28;20033;-85
2023/10/26 08:56:28;;;;;;;20.13;15.90;;;;;;;-148.88;100.00;-17125.47;5013643;28;20029;-84
2023/10/26 08:59:02;;;;;;;18.85;14.30;;;;;;;-148.88;100.00;-17125.47;5013080;28;20022;-87
2023/10/26 09:01:28;;;;;;;17.30;13.98;;;;;;;-148.88;100.00;-17125.47;5013564;28;20026;-85
2023/10/26 09:03:53;;;;;;;20.70;15.60;;;;;;;-148.88;100.00;-17125.47;5013916;28;20033;-86
2023/10/26 09:06:19;;;;;;;21.13;15.90;;;;;;;-148.88;100.00;-17125.47;5013900;28;20441;-86
2023/10/26 09:09:03;;;;;;;22.38;16.55;;;;;;;-148.88;100.00;-17125.47;5015034;28;20387;-87
2023/10/26 09:11:30;;;;;;;19.50;15.23;;;;;;;-148.88;100.00;-17125.47;5020937;28;20022;-87
2023/10/26 09:14:11;;;;;;;17.98;14.48;;;;;;;-148.88;100.00;-17125.47;5016747;28;20076;-85
2023/10/26 09:16:37;;;;;;;14.98;12.32;;;;;;;-148.88;100.00;-17125.47;5014941;28;20108;-84
2023/10/26 09:19:02;;;;;;;17.55;13.18;;;;;;;-148.88;100.00;-17125.47;5013698;28;20105;-85
2023/10/26 09:21:28;;;;;;;17.17;13.70;;;;;;;-148.88;100.00;-17125.47;5015630;28;20108;-84
2023/10/26 09:23:53;;;;;;;15.35;12.43;;;;;;;-148.88;100.00;-17125.47;5015594;28;20440;-83
2023/10/26 09:26:20;;;;;;;15.82;12.85;;;;;;;-148.88;100.00;-17125.47;5015066;28;20036;-84
2023/10/26 09:28:49;;;;;;;14.15;12.05;;;;;;;-148.88;100.00;-17125.47;5017308;28;20046;-84
2023/10/26 09:31:15;;;;;;;15.38;12.23;;;;;;;-148.88;100.00;-17125.47;5015804;28;20120;-86
2023/10/26 09:33:40;;;;;;;12.85;11.20;;;;;;;-148.88;100.00;-17125.47;5015536;28;20091;-86
2023/10/26 09:36:12;;;;;;;13.95;12.25;;;;;;;-148.88;100.00;-17125.47;5016774;28;20030;-85
2023/10/26 09:38:37;;;;;;;16.02;13.00;;;;;;;-148.88;100.00;-17125.47;5017701;28;20037;-85
2023/10/26 09:41:11;;;;;;;16.08;12.38;;;;;;;-148.88;100.00;-17125.47;5017043;28;20022;-85
2023/10/26 09:43:37;;;;;;;13.32;11.32;;;;;;;-148.88;100.00;-17125.47;5016724;28;20032;-84
2023/10/26 09:46:03;;;;;;;16.52;13.85;;;;;;;-148.88;100.00;-17125.47;5016531;28;20104;-85
2023/10/26 09:48:28;;;;;;;15.18;13.57;;;;;;;-148.88;100.00;-17125.47;5015187;28;20120;-84
2023/10/26 09:51:00;;;;;;;16.88;13.05;;;;;;;-148.88;100.00;-17125.47;5014758;28;20028;-84
2023/10/26 09:53:40;;;;;;;19.42;16.55;;;;;;;-148.88;100.00;-17125.47;5016773;28;20014;-84
2023/10/26 09:56:08;;;;;;;12.77;11.30;;;;;;;-148.88;100.00;-17125.47;5015911;28;20036;-84
2023/10/26 09:58:41;;;;;;;13.10;11.07;;;;;;;-148.88;100.00;-17125.47;5014806;28;20029;-85
2023/10/26 10:01:45;;;;;;;13.32;10.60;;;;;;;-148.88;100.00;-17125.47;5016003;28;20029;-85
2023/10/26 10:04:13;;;;;;;13.10;11.27;;;;;;;-148.88;100.00;-17125.47;4941244;29;20127;-85
2023/10/26 10:06:49;;;;;;;11.48;10.23;;;;;;;-148.88;100.00;-17125.47;4956176;28;20585;-85
2023/10/26 10:09:17;;;;;;;13.95;11.50;;;;;;;-148.88;100.00;-17125.47;4988908;28;20599;-87
2023/10/26 10:11:42;;;;;;;14.10;11.88;;;;;;;-148.88;100.00;-17125.47;5015113;28;20079;-87
2023/10/26 10:14:08;;;;;;;13.65;11.57;;;;;;;-148.88;100.00;-17125.47;5015222;28;20081;-86
2023/10/26 10:16:33;;;;;;;16.98;14.65;;;;;;;-148.88;100.00;-17125.47;5016121;28;20045;-86
2023/10/26 10:19:21;;;;;;;18.60;14.38;;;;;;;-148.88;100.00;-17125.47;5014786;28;20030;-85
2023/10/26 10:21:51;;;;;;;15.43;12.98;;;;;;;-148.88;100.00;-17125.47;5016123;28;20100;-85
2023/10/26 10:24:38;;;;;;;15.60;13.32;;;;;;;-148.88;100.00;-17125.47;5014752;28;20048;-85
2023/10/26 10:27:18;;;;;;;14.25;12.63;;;;;;;-148.88;100.00;-17125.47;5014483;28;20029;-87
2023/10/26 10:29:43;;;;;;;18.50;15.02;;;;;;;-148.88;100.00;-17125.47;5015857;28;20022;-87
2023/10/26 10:32:12;;;;;;;17.73;15.13;;;;;;;-148.88;100.00;-17125.47;5015617;28;20018;-86
2023/10/26 10:34:45;;;;;;;19.08;15.43;;;;;;;-148.88;100.00;-17125.47;5016525;28;20052;-87
2023/10/26 10:37:21;;;;;;;17.27;14.25;;;;;;;-148.88;100.00;-17125.47;5016643;28;20033;-86
2023/10/26 10:40:15;;;;;;;14.90;13.07;;;;;;;-148.88;100.00;-17125.47;5018142;28;20029;-88
2023/10/26 10:42:47;;;;;;;16.02;14.13;;;;;;;-148.88;100.00;-17125.47;5021389;28;20018;-86
2023/10/26 10:45:13;;;;;;;17.83;14.25;;;;;;;-148.88;100.00;-17125.47;5016819;28;20083;-86